Aviation Digital Data Service (ADDS)

Output produced by METARs form (2337 UTC 18 August 2019)
found at http://www.aviationweather.gov/metar/data/
 
Forecast for: BIKF (KEFLAVIK (CIV/MI, IS)
Text: TAF BIKF 182207Z 1900/2000 02010KT 9999 FEW015 TX14/1918Z TN06/1906Z
Forecast period: 0000 to 2100 UTC 19 August 2019
Forecast type: FROM: standard forecast or significant change
Winds: from the NNE (20 degrees) at 12 MPH (10 knots; 5.1 m/s)
Visibility: 6 or more miles 10+ km)
Ceiling: at least 12,000 feet AGL
Clouds: few clouds at 1500 feet AGL
Weather: no significant weather forecast for this period
Text: BECMG 1921/1923 14010KT
Forecast period: 2100 UTC 19 August 2019 to 0000 UTC 20 August 2019
Forecast type: BECOMING: Conditions expected to become as follows by 2300 UTC 19 August 2019
Winds: from the SE (140 degrees) at 12 MPH (10 knots; 5.1 m/s)
Visibility: 6 or more miles 10+ km)
Ceiling: at least 12,000 feet AGL
Clouds: few clouds at 1500 feet AGL
Weather: no significant weather forecast for this period